Time;durP1;ratioP1;P1;durP2;ratioP2;P2;SDS_P1;SDS_P2;PMS_P1;PMS_P2;Temp;Humidity;BMP_temperature;BMP_pressure;BME280_temperature;BME280_humidity;BME280_pressure;Samples;Min_cycle;Max_cycle;Signal;HPM_P1;HPM_P2
2022/06/22 00:01:28;;;;;;;7.40;6.73;;;;;;;26.11;62.88;98800.53;5011869;28;20606;-67
2022/06/22 00:03:57;;;;;;;7.27;6.77;;;;;;;26.12;63.23;98817.66;5012755;28;20248;-67
2022/06/22 00:06:32;;;;;;;9.90;6.93;;;;;;;26.06;63.62;98825.16;5012458;28;20193;-67
2022/06/22 00:09:01;;;;;;;8.20;7.40;;;;;;;26.09;63.43;98827.25;5012131;28;20216;-67
2022/06/22 00:11:28;;;;;;;8.07;6.97;;;;;;;26.06;63.30;98833.34;5012317;28;20205;-67
2022/06/22 00:13:57;;;;;;;8.33;6.33;;;;;;;25.94;63.67;98837.75;5012665;28;20234;-67
2022/06/22 00:16:26;;;;;;;8.73;6.60;;;;;;;25.90;63.83;98832.09;5012113;28;20736;-67
2022/06/22 00:18:54;;;;;;;7.03;6.17;;;;;;;25.89;63.48;98841.34;5012281;28;20259;-67
2022/06/22 00:21:26;;;;;;;9.70;6.80;;;;;;;25.94;63.77;98827.66;5012532;28;20248;-68
2022/06/22 00:23:56;;;;;;;8.67;7.00;;;;;;;25.95;63.74;98839.34;5012204;28;20186;-67
2022/06/22 00:26:33;;;;;;;7.70;7.03;;;;;;;26.03;63.43;98835.88;5012290;28;20256;-67
2022/06/22 00:29:20;;;;;;;7.53;6.87;;;;;;;26.06;63.19;98829.81;5011760;28;20217;-67
2022/06/22 00:32:00;;;;;;;7.63;6.90;;;;;;;25.98;63.83;98838.72;5012335;28;20269;-67
2022/06/22 00:34:29;;;;;;;6.90;6.40;;;;;;;26.03;63.50;98833.13;5012178;28;20309;-66
2022/06/22 00:36:59;;;;;;;8.00;7.23;;;;;;;26.02;63.37;98840.53;5011818;28;20264;-67
2022/06/22 00:39:36;;;;;;;7.37;6.63;;;;;;;26.22;62.52;98844.63;5012360;28;20205;-66
2022/06/22 00:42:16;;;;;;;7.77;6.97;;;;;;;26.21;62.80;98840.31;5011764;28;20182;-67
2022/06/22 00:44:46;;;;;;;8.90;8.10;;;;;;;26.19;63.04;98839.78;5011965;28;20605;-67
2022/06/22 00:47:22;;;;;;;7.70;7.00;;;;;;;26.17;62.88;98833.88;5011889;28;20197;-67
2022/06/22 00:49:49;;;;;;;8.13;7.23;;;;;;;26.25;62.88;98835.84;5011836;28;20193;-67
2022/06/22 00:52:33;;;;;;;7.20;6.53;;;;;;;26.35;62.13;98838.28;5011566;28;20754;-67
2022/06/22 00:55:02;;;;;;;8.37;7.57;;;;;;;26.46;62.50;98842.31;5012081;28;20269;-68
2022/06/22 00:57:35;;;;;;;7.50;6.80;;;;;;;26.46;61.66;98834.16;5011797;28;20689;-67
2022/06/22 01:00:07;;;;;;;8.23;7.40;;;;;;;26.50;62.07;98846.81;5015117;28;20241;-66
2022/06/22 01:02:38;;;;;;;8.87;7.57;;;;;;;26.48;62.11;98845.53;5015646;28;20607;-68
2022/06/22 01:05:19;;;;;;;10.63;7.90;;;;;;;26.47;61.57;98857.53;5015873;28;20213;-67
2022/06/22 01:07:51;;;;;;;7.80;7.10;;;;;;;26.35;62.43;98858.16;5015715;28;20751;-66
2022/06/22 01:10:25;;;;;;;8.17;7.47;;;;;;;26.35;62.32;98866.31;5015996;28;20194;-67
2022/06/22 01:12:57;;;;;;;8.37;7.37;;;;;;;26.49;62.01;98868.91;5015198;28;20632;-67
2022/06/22 01:15:28;;;;;;;7.70;7.13;;;;;;;26.68;61.17;98869.50;5015400;28;20273;-69
2022/06/22 01:18:02;;;;;;;8.10;7.40;;;;;;;26.79;60.94;98876.28;5015530;28;20252;-67
2022/06/22 01:20:36;;;;;;;8.43;7.07;;;;;;;26.91;60.66;98881.94;5015293;28;20720;-67
2022/06/22 01:23:42;;;;;;;7.77;7.07;;;;;;;26.99;60.30;98886.59;5015939;28;20247;-67
2022/06/22 01:26:34;;;;;;;7.90;7.23;;;;;;;27.07;60.12;98888.56;5015389;28;20251;-67
2022/06/22 01:29:07;;;;;;;8.80;7.47;;;;;;;27.12;59.65;98896.56;5012901;28;20279;-67
2022/06/22 01:31:35;;;;;;;7.77;7.27;;;;;;;27.04;59.30;98889.19;5015221;28;20650;-68
2022/06/22 01:34:03;;;;;;;7.87;7.10;;;;;;;26.89;59.71;98886.88;5014866;28;20194;-67
2022/06/22 01:36:32;;;;;;;9.37;7.60;;;;;;;26.63;60.47;98883.28;5015398;28;20198;-67
2022/06/22 01:39:00;;;;;;;8.07;7.40;;;;;;;26.55;60.48;98875.84;5015206;28;20206;-67
2022/06/22 01:41:34;;;;;;;8.20;7.33;;;;;;;26.48;60.80;98880.94;5014730;28;20620;-67
2022/06/22 01:44:10;;;;;;;7.93;7.30;;;;;;;26.36;61.47;98880.72;5014917;28;20182;-67
2022/06/22 01:46:48;;;;;;;7.60;7.10;;;;;;;26.21;61.97;98881.94;5015123;28;20201;-67
2022/06/22 01:49:20;;;;;;;8.27;7.53;;;;;;;26.12;62.38;98883.81;5015052;28;20210;-67
2022/06/22 01:51:51;;;;;;;8.57;7.63;;;;;;;25.95;62.55;98882.88;5015218;28;20244;-67
2022/06/22 01:54:24;;;;;;;8.43;7.73;;;;;;;26.05;62.81;98888.09;5014419;28;20186;-67
2022/06/22 01:56:58;;;;;;;8.63;7.83;;;;;;;25.98;63.08;98876.84;5015159;28;20249;-67
2022/06/22 01:59:38;;;;;;;8.03;7.43;;;;;;;25.78;63.37;98874.59;5014433;28;20265;-66
2022/06/22 02:02:09;;;;;;;8.73;8.03;;;;;;;25.61;63.54;98874.47;5014440;28;20650;-67
2022/06/22 02:04:41;;;;;;;8.50;7.40;;;;;;;25.47;64.27;98879.16;5014126;28;20277;-66
2022/06/22 02:10:16;;;;;;;10.30;8.03;;;;;;;25.14;67.25;98861.41;5014458;28;20209;-73
2022/06/22 02:12:47;;;;;;;8.37;7.57;;;;;;;25.20;66.15;98860.16;5014078;28;20300;-74
2022/06/22 02:15:23;;;;;;;10.27;7.70;;;;;;;25.21;67.00;98865.28;5014372;28;20697;-73
2022/06/22 02:17:52;;;;;;;8.67;7.97;;;;;;;25.08;66.29;98871.56;5015041;28;20190;-74
2022/06/22 02:20:37;;;;;;;10.30;8.20;;;;;;;25.24;66.42;98869.31;5014410;28;20202;-75
2022/06/22 02:23:13;;;;;;;8.87;8.07;;;;;;;25.28;66.16;98864.91;5015228;28;20244;-75
2022/06/22 02:25:53;;;;;;;8.17;7.40;;;;;;;25.37;65.50;98879.38;5014360;28;20197;-75
2022/06/22 02:28:20;;;;;;;9.27;7.77;;;;;;;25.38;65.56;98873.63;5014477;28;20725;-74
2022/06/22 02:30:49;;;;;;;9.20;8.50;;;;;;;25.54;65.53;98876.78;5014134;28;20216;-73
2022/06/22 02:33:17;;;;;;;10.70;7.43;;;;;;;25.57;64.53;98877.00;5014587;28;20198;-73
2022/06/22 02:35:44;;;;;;;13.63;8.17;;;;;;;25.66;64.70;98869.72;5014117;28;20190;-73
2022/06/22 02:38:14;;;;;;;12.50;8.40;;;;;;;25.32;65.97;98868.63;5014007;28;20261;-73
2022/06/22 02:46:22;;;;;;;8.33;7.53;;;;;;;25.38;64.94;98862.75;5013954;28;20560;-73
2022/06/22 02:48:55;;;;;;;10.57;8.30;;;;;;;25.41;65.17;98858.63;5013888;28;20308;-74
2022/06/22 02:51:27;;;;;;;9.60;8.30;;;;;;;25.02;65.81;98851.03;5013415;28;20709;-74
2022/06/22 02:53:58;;;;;;;8.53;7.83;;;;;;;24.89;66.53;98849.16;5013686;28;20650;-75
2022/06/22 02:56:28;;;;;;;9.80;8.13;;;;;;;24.93;66.78;98850.16;5013985;28;20269;-73
2022/06/22 02:58:55;;;;;;;8.73;7.80;;;;;;;24.86;66.82;98845.13;5014293;28;20264;-74
2022/06/22 03:01:27;;;;;;;8.93;7.53;;;;;;;24.73;67.36;98850.56;5013164;28;20196;-73
2022/06/22 03:03:57;;;;;;;9.93;7.73;;;;;;;24.70;67.71;98857.41;5013664;28;20604;-73
2022/06/22 03:06:30;;;;;;;16.33;7.97;;;;;;;24.68;67.82;98848.78;5013635;28;20558;-72
2022/06/22 03:09:00;;;;;;;10.23;8.13;;;;;;;24.68;67.19;98859.66;5012902;28;20693;-72
2022/06/22 03:11:27;;;;;;;9.33;8.33;;;;;;;24.85;66.34;98859.84;5012883;28;20190;-72
2022/06/22 03:13:58;;;;;;;8.13;7.30;;;;;;;25.16;65.73;98859.97;5013289;28;20225;-72
2022/06/22 03:16:30;;;;;;;18.63;16.83;;;;;;;25.24;64.93;98867.41;5013757;28;20186;-72
2022/06/22 03:19:01;;;;;;;8.03;7.47;;;;;;;25.30;65.48;98863.47;5013316;28;20190;-72
2022/06/22 03:21:29;;;;;;;8.07;7.47;;;;;;;25.38;64.06;98868.19;5012623;28;20190;-71
2022/06/22 03:24:02;;;;;;;8.17;7.47;;;;;;;25.67;63.57;98867.78;5011705;28;20236;-72
2022/06/22 03:26:34;;;;;;;7.00;6.60;;;;;;;25.99;63.02;98862.91;5012171;28;20186;-72
2022/06/22 03:29:06;;;;;;;7.87;7.23;;;;;;;26.21;62.03;98864.81;5012940;28;20701;-72
2022/06/22 03:31:39;;;;;;;7.20;6.60;;;;;;;26.48;60.81;98861.88;5012895;28;20193;-72
2022/06/22 03:34:10;;;;;;;7.77;7.10;;;;;;;26.70;59.62;98867.28;5013000;28;20186;-72
2022/06/22 03:36:44;;;;;;;8.17;7.33;;;;;;;26.83;58.91;98866.38;5012748;28;20186;-72
2022/06/22 03:39:15;;;;;;;8.40;7.07;;;;;;;26.95;58.70;98869.28;5012624;28;20189;-71
2022/06/22 03:41:47;;;;;;;8.07;7.47;;;;;;;27.07;57.68;98853.09;5012982;28;20214;-71
2022/06/22 03:44:17;;;;;;;7.03;6.43;;;;;;;27.27;57.71;98860.69;5012160;28;20245;-71
2022/06/22 03:46:48;;;;;;;7.63;6.93;;;;;;;27.46;56.97;98863.91;5013056;28;20248;-71
2022/06/22 03:49:21;;;;;;;7.90;7.10;;;;;;;27.62;56.20;98881.41;5012180;28;20694;-71
2022/06/22 03:51:53;;;;;;;7.33;6.60;;;;;;;27.74;55.95;98870.63;5012609;28;20233;-72
2022/06/22 03:54:28;;;;;;;11.23;7.20;;;;;;;27.80;55.68;98861.16;5012768;28;20189;-72
2022/06/22 03:57:03;;;;;;;8.37;7.53;;;;;;;27.84;55.61;98871.13;5011933;28;20782;-72
2022/06/22 03:59:32;;;;;;;14.40;7.77;;;;;;;27.88;55.84;98874.00;5012581;28;20193;-72
2022/06/22 04:02:03;;;;;;;9.73;7.60;;;;;;;28.03;55.19;98884.44;5011702;28;20607;-73
2022/06/22 04:04:30;;;;;;;7.87;7.17;;;;;;;28.46;54.33;98885.16;5012456;28;20186;-72
2022/06/22 04:06:57;;;;;;;16.73;8.43;;;;;;;29.03;52.29;98880.91;5012334;28;20193;-72
2022/06/22 04:09:26;;;;;;;10.67;7.07;;;;;;;29.69;49.51;98879.13;5012285;28;20701;-73
2022/06/22 04:11:58;;;;;;;8.17;6.63;;;;;;;30.08;48.79;98881.34;5012731;28;20198;-72
2022/06/22 04:14:31;;;;;;;12.63;7.33;;;;;;;30.62;47.40;98878.16;5012500;28;20230;-74
2022/06/22 04:17:03;;;;;;;15.57;7.47;;;;;;;31.18;45.62;98880.00;5012368;28;20240;-72
2022/06/22 04:19:34;;;;;;;13.90;7.00;;;;;;;31.64;43.92;98865.69;5012029;28;20198;-73
2022/06/22 04:22:04;;;;;;;9.03;6.80;;;;;;;32.22;42.89;98870.47;5011866;28;20198;-74
2022/06/22 04:24:36;;;;;;;10.23;6.97;;;;;;;32.48;41.87;98873.56;5011118;28;20594;-73
2022/06/22 04:27:10;;;;;;;9.70;6.93;;;;;;;32.77;40.66;98870.38;5012087;28;20194;-73
2022/06/22 04:29:43;;;;;;;7.10;6.40;;;;;;;32.91;40.54;98876.22;5011955;28;20209;-73
2022/06/22 04:32:17;;;;;;;11.67;6.67;;;;;;;33.02;40.55;98877.28;5011648;28;20190;-73
2022/06/22 04:34:48;;;;;;;6.93;6.30;;;;;;;33.22;39.60;98886.38;5011961;28;20607;-73
2022/06/22 04:37:25;;;;;;;9.37;6.40;;;;;;;33.55;39.05;98889.50;5011688;28;20186;-72
2022/06/22 04:40:10;;;;;;;7.40;6.77;;;;;;;33.82;38.13;98893.22;5012549;28;20245;-73
2022/06/22 04:42:37;;;;;;;7.43;6.38;;;;;;;34.19;37.61;98888.84;5012520;28;20256;-73
2022/06/22 04:45:06;;;;;;;7.18;6.43;;;;;;;34.20;37.84;98871.13;5011882;28;20198;-73
2022/06/22 04:47:36;;;;;;;15.63;6.55;;;;;;;33.80;39.32;98868.75;5012174;28;20197;-73
2022/06/22 04:50:06;;;;;;;9.60;6.73;;;;;;;33.64;39.46;98881.03;5011359;28;20210;-73
2022/06/22 04:52:37;;;;;;;10.30;7.05;;;;;;;33.81;39.11;98886.09;5012019;28;20190;-73
2022/06/22 04:55:06;;;;;;;10.53;7.33;;;;;;;33.41;40.22;98882.88;5011836;28;20280;-74
2022/06/22 04:57:38;;;;;;;11.30;7.10;;;;;;;33.67;39.73;98899.59;5012343;28;20190;-74
2022/06/22 05:00:12;;;;;;;11.50;6.97;;;;;;;33.93;38.95;98899.78;5011896;28;20700;-73
2022/06/22 05:02:43;;;;;;;10.18;6.88;;;;;;;34.33;38.99;98903.72;5011402;28;20186;-70
2022/06/22 05:05:20;;;;;;;8.25;7.18;;;;;;;34.97;37.92;98900.91;5011714;28;20576;-70
2022/06/22 05:07:52;;;;;;;17.92;7.72;;;;;;;34.99;37.45;98898.56;5011266;28;20186;-70
2022/06/22 05:10:28;;;;;;;11.88;6.93;;;;;;;34.42;38.18;98906.25;5011408;28;20783;-70
2022/06/22 05:12:57;;;;;;;9.13;7.05;;;;;;;34.41;38.40;98905.44;5010823;28;20673;-69
2022/06/22 05:15:27;;;;;;;10.55;7.00;;;;;;;34.46;38.78;98907.13;5011226;28;20661;-69
2022/06/22 05:17:57;;;;;;;10.63;7.40;;;;;;;34.32;38.58;98909.59;5011730;28;20646;-70
2022/06/22 05:20:30;;;;;;;7.28;6.70;;;;;;;34.53;38.08;98918.28;5011318;28;20205;-70
2022/06/22 05:23:01;;;;;;;11.30;7.20;;;;;;;35.00;36.79;98927.00;5011640;28;20190;-68
2022/06/22 05:25:30;;;;;;;9.27;6.95;;;;;;;35.07;36.22;98932.63;5010805;28;20186;-69
2022/06/22 05:28:02;;;;;;;7.88;6.47;;;;;;;34.64;37.34;98933.03;5011224;28;20658;-69
2022/06/22 05:30:33;;;;;;;9.48;6.93;;;;;;;34.40;37.79;98936.97;5011229;28;20210;-69
2022/06/22 05:33:05;;;;;;;11.50;7.32;;;;;;;34.08;38.33;98923.72;5003668;28;20194;-69
2022/06/22 05:35:36;;;;;;;7.93;6.82;;;;;;;33.79;39.13;98932.50;5008746;28;20190;-73
2022/06/22 05:38:07;;;;;;;7.30;6.60;;;;;;;34.00;38.96;98936.53;4990657;28;20187;-73
2022/06/22 05:40:35;;;;;;;14.80;6.20;;;;;;;33.52;39.02;98928.81;4997479;28;20198;-74
2022/06/22 05:43:02;;;;;;;9.65;6.78;;;;;;;32.82;40.99;98927.91;5010465;28;20551;-73
2022/06/22 05:45:34;;;;;;;8.23;7.43;;;;;;;32.73;41.86;98932.75;5012639;28;20201;-74
2022/06/22 05:48:02;;;;;;;12.70;7.17;;;;;;;32.96;41.63;98933.75;5011001;28;20686;-77
2022/06/22 05:50:40;;;;;;;7.83;7.17;;;;;;;33.53;40.27;98929.59;4999876;28;20735;-73
2022/06/22 05:53:12;;;;;;;7.50;6.90;;;;;;;33.80;39.43;98939.63;5010460;28;20272;-76
2022/06/22 05:55:47;;;;;;;8.65;6.75;;;;;;;34.28;38.52;98928.00;5011750;28;20641;-74
2022/06/22 05:58:21;;;;;;;7.95;6.47;;;;;;;34.91;37.10;98941.03;5013055;28;20217;-73
2022/06/22 06:00:49;;;;;;;7.65;6.57;;;;;;;34.80;37.00;98939.28;5015227;28;20248;-74
2022/06/22 06:03:33;;;;;;;7.13;6.40;;;;;;;34.45;37.51;98949.66;5014423;28;20201;-71
2022/06/22 06:06:06;;;;;;;8.73;6.38;;;;;;;34.51;37.08;98934.41;5010002;28;20716;-73
2022/06/22 06:08:41;;;;;;;7.72;6.30;;;;;;;34.75;36.76;98937.59;5012374;28;20628;-77
2022/06/22 06:11:14;;;;;;;7.32;6.55;;;;;;;34.04;38.87;98939.38;5012700;28;20671;-77
2022/06/22 06:13:45;;;;;;;14.55;6.50;;;;;;;33.71;39.22;98936.31;5011660;28;20404;-73
2022/06/22 06:16:18;;;;;;;8.45;6.80;;;;;;;33.66;39.10;98939.31;5013231;28;20190;-72
2022/06/22 06:18:47;;;;;;;9.00;7.00;;;;;;;33.03;40.13;98933.91;5013077;28;20228;-71
2022/06/22 06:21:18;;;;;;;8.35;7.15;;;;;;;32.71;41.68;98926.81;5014153;28;20284;-71
2022/06/22 06:23:51;;;;;;;13.55;7.28;;;;;;;32.75;42.00;98924.94;5011545;28;20700;-71
2022/06/22 06:29:18;;;;;;;7.82;6.78;;;;;;;33.75;40.55;98926.13;5010964;28;20298;-70
2022/06/22 06:31:57;;;;;;;13.38;7.45;;;;;;;33.83;40.30;98925.13;5011913;28;20669;-70
2022/06/22 06:34:32;;;;;;;8.57;7.22;;;;;;;34.04;39.13;98928.34;5009330;28;20700;-68
2022/06/22 06:37:03;;;;;;;10.57;7.80;;;;;;;33.98;39.06;98924.28;5012681;28;20597;-69
2022/06/22 06:39:35;;;;;;;9.20;7.20;;;;;;;34.20;38.78;98915.25;5013308;28;20264;-69
2022/06/22 06:42:08;;;;;;;9.07;7.82;;;;;;;34.14;39.26;98911.22;4993662;28;20194;-68
2022/06/22 06:44:39;;;;;;;12.90;7.72;;;;;;;33.95;39.38;98911.22;4994017;28;20187;-69
2022/06/22 06:47:14;;;;;;;12.43;8.38;;;;;;;33.98;39.69;98908.56;4993113;28;20323;-68
2022/06/22 06:49:48;;;;;;;10.30;8.10;;;;;;;34.03;39.29;98913.75;4994299;28;20744;-68
2022/06/22 06:52:21;;;;;;;11.60;7.93;;;;;;;34.31;39.27;98910.78;4994187;28;20186;-68
2022/06/22 06:54:56;;;;;;;23.88;8.38;;;;;;;34.22;39.39;98907.44;4994052;28;20194;-68
2022/06/22 06:57:23;;;;;;;9.32;8.40;;;;;;;34.18;39.65;98906.56;4992129;28;20209;-69
2022/06/22 06:59:53;;;;;;;9.52;8.20;;;;;;;34.25;39.29;98903.94;4993425;28;20294;-69
2022/06/22 07:02:28;;;;;;;13.25;8.38;;;;;;;34.46;39.12;98910.66;4993391;28;20241;-68
2022/06/22 07:04:57;;;;;;;12.02;8.57;;;;;;;34.77;38.45;98915.13;4993299;28;20654;-69
2022/06/22 07:07:33;;;;;;;16.83;8.57;;;;;;;34.38;39.43;98922.75;4993928;28;20278;-69
2022/06/22 07:10:06;;;;;;;14.48;9.05;;;;;;;34.22;39.44;98916.50;4993671;28;20723;-68
2022/06/22 07:12:36;;;;;;;13.57;9.02;;;;;;;34.64;39.01;98909.03;4994473;28;20191;-68
2022/06/22 07:15:06;;;;;;;13.20;8.88;;;;;;;34.81;38.66;98891.16;4993952;28;20252;-68
2022/06/22 07:17:34;;;;;;;10.00;9.02;;;;;;;34.88;38.33;98924.44;4993908;28;20691;-68
2022/06/22 07:20:11;;;;;;;13.60;9.27;;;;;;;34.79;39.30;98910.06;4993480;28;20253;-68
2022/06/22 07:22:42;;;;;;;13.93;9.00;;;;;;;34.70;38.82;98920.56;4994042;28;20249;-69
2022/06/22 07:25:18;;;;;;;11.45;9.40;;;;;;;34.92;38.69;98922.53;4993300;28;20186;-67
2022/06/22 07:27:52;;;;;;;21.02;9.95;;;;;;;35.11;39.22;98923.22;4993425;28;20651;-67
2022/06/22 07:30:26;;;;;;;27.17;9.70;;;;;;;35.46;39.34;98911.91;4993591;28;20306;-67
2022/06/22 07:32:58;;;;;;;11.38;9.43;;;;;;;35.86;37.64;98920.38;4993240;28;20566;-67
2022/06/22 07:35:36;;;;;;;10.75;9.07;;;;;;;35.82;37.60;98930.59;4993073;28;20195;-67
2022/06/22 07:38:11;;;;;;;12.18;9.48;;;;;;;35.81;37.41;98929.81;4994063;28;20190;-68
2022/06/22 07:40:39;;;;;;;11.20;9.90;;;;;;;35.64;38.07;98930.34;5001606;28;20198;-68
2022/06/22 07:43:06;;;;;;;13.10;9.73;;;;;;;35.35;38.68;98922.06;5013226;28;20248;-68
2022/06/22 07:45:33;;;;;;;11.57;9.52;;;;;;;35.45;38.89;98924.16;5012837;28;20197;-67
2022/06/22 07:48:05;;;;;;;10.88;9.88;;;;;;;35.48;38.42;98921.44;5012565;28;20736;-67
2022/06/22 07:50:37;;;;;;;11.93;10.63;;;;;;;35.76;38.14;98929.34;5012397;28;20264;-67
2022/06/22 07:53:15;;;;;;;11.10;9.48;;;;;;;35.75;37.84;98914.72;5012560;28;20317;-67
2022/06/22 07:55:52;;;;;;;11.07;10.13;;;;;;;36.01;38.04;98931.22;5012687;28;20248;-67
2022/06/22 07:58:26;;;;;;;28.98;11.70;;;;;;;35.97;38.05;98932.38;5012749;28;20220;-67
2022/06/22 08:00:59;;;;;;;13.10;10.30;;;;;;;35.16;38.86;98930.41;5012544;28;20244;-67
2022/06/22 08:03:32;;;;;;;23.48;10.68;;;;;;;35.21;39.63;98922.59;5012301;28;20249;-67
2022/06/22 08:06:05;;;;;;;13.18;10.82;;;;;;;35.76;38.15;98921.84;5012254;28;20198;-67
2022/06/22 08:08:36;;;;;;;20.00;9.95;;;;;;;36.12;35.70;98917.53;5011500;28;20186;-70
2022/06/22 08:11:09;;;;;;;9.52;8.48;;;;;;;36.33;35.54;98917.78;5012410;28;20213;-68
2022/06/22 08:13:41;;;;;;;19.48;9.30;;;;;;;36.29;35.13;98926.06;5010815;28;20221;-69
2022/06/22 08:16:12;;;;;;;10.05;9.20;;;;;;;36.10;34.86;98920.66;5010613;28;20689;-69
2022/06/22 08:18:40;;;;;;;9.75;8.90;;;;;;;35.77;34.92;98920.66;5009963;28;20190;-70
2022/06/22 08:21:14;;;;;;;13.43;8.90;;;;;;;35.75;35.24;98913.91;5007087;28;20198;-71
2022/06/22 08:23:42;;;;;;;10.70;8.82;;;;;;;35.75;35.21;98919.44;5008259;28;20189;-71
2022/06/22 08:26:16;;;;;;;10.50;8.63;;;;;;;35.49;35.45;98911.19;5006293;28;20252;-69
2022/06/22 08:28:43;;;;;;;9.50;8.25;;;;;;;36.15;35.27;98925.06;5007609;28;20182;-68
2022/06/22 08:31:10;;;;;;;12.00;8.27;;;;;;;36.61;33.65;98923.59;5009271;28;20221;-68
2022/06/22 08:33:39;;;;;;;9.98;8.98;;;;;;;36.94;32.89;98921.56;5009289;28;20193;-67
2022/06/22 08:36:13;;;;;;;12.55;8.50;;;;;;;36.80;33.11;98915.09;5009596;28;20194;-67
2022/06/22 08:38:44;;;;;;;9.10;8.30;;;;;;;36.94;32.46;98917.97;5010235;28;20186;-68
2022/06/22 08:41:27;;;;;;;10.43;8.75;;;;;;;37.09;32.49;98914.16;4994896;28;20937;-71
2022/06/22 08:44:01;;;;;;;9.30;8.48;;;;;;;36.08;33.66;98922.22;4991884;28;20278;-68
2022/06/22 08:47:00;;;;;;;11.77;8.73;;;;;;;36.52;33.51;98920.34;5008207;28;20188;-68
2022/06/22 08:49:51;;;;;;;9.18;8.23;;;;;;;37.32;33.02;98920.28;5000010;28;20194;-67
2022/06/22 08:52:48;;;;;;;12.68;8.48;;;;;;;37.40;32.37;98918.34;5007957;28;20194;-68
2022/06/22 08:55:30;;;;;;;9.25;8.35;;;;;;;37.46;32.36;98925.91;5008885;28;20186;-72
2022/06/22 08:58:15;;;;;;;9.98;9.30;;;;;;;37.57;32.58;98928.72;5008843;28;20192;-69
2022/06/22 09:00:50;;;;;;;9.32;8.48;;;;;;;37.89;31.70;98936.06;5008389;28;20198;-67
2022/06/22 09:03:43;;;;;;;11.73;8.40;;;;;;;38.17;30.92;98932.63;5008455;28;20190;-68
2022/06/22 09:06:30;;;;;;;9.43;8.57;;;;;;;37.40;31.13;98921.91;5008948;28;20194;-67
2022/06/22 09:09:35;;;;;;;13.13;8.75;;;;;;;37.34;31.06;98912.38;5009620;28;20190;-72
2022/06/22 09:12:22;;;;;;;9.23;8.52;;;;;;;36.32;32.64;98907.91;4997865;28;20852;-71
2022/06/22 09:15:35;;;;;;;8.82;8.10;;;;;;;35.85;34.06;98891.16;5008619;28;20202;-72
2022/06/22 09:18:17;;;;;;;20.55;9.20;;;;;;;35.92;33.90;98891.22;5009673;28;20727;-71
2022/06/22 09:20:57;;;;;;;24.17;9.48;;;;;;;36.15;33.52;98897.41;5013225;28;20193;-69
2022/06/22 09:23:33;;;;;;;17.27;10.52;;;;;;;36.04;34.22;98885.44;5013383;28;20194;-71
2022/06/22 09:26:14;;;;;;;24.83;10.02;;;;;;;35.80;34.49;98883.19;5013749;28;20186;-70
2022/06/22 09:28:50;;;;;;;13.30;9.98;;;;;;;35.65;34.79;98875.88;5012122;28;20688;-74
2022/06/22 09:31:49;;;;;;;31.80;10.02;;;;;;;35.78;34.34;98874.47;5012243;28;20615;-66
2022/06/22 09:34:48;;;;;;;12.02;9.93;;;;;;;35.15;34.40;98876.34;5013249;28;20240;-67
2022/06/22 09:37:44;;;;;;;9.82;8.80;;;;;;;35.05;35.07;98885.25;5012131;28;20194;-68
2022/06/22 09:40:36;;;;;;;9.32;8.55;;;;;;;35.18;35.26;98881.09;5009211;28;20242;-66
2022/06/22 09:43:42;;;;;;;9.30;8.50;;;;;;;35.03;35.83;98871.03;4996530;28;20187;-66
2022/06/22 09:46:29;;;;;;;13.27;9.98;;;;;;;34.84;36.76;98851.78;4988890;28;20193;-66
2022/06/22 09:49:37;;;;;;;12.57;9.57;;;;;;;34.58;36.58;98865.53;4999152;28;20198;-66
2022/06/22 09:52:21;;;;;;;9.43;8.52;;;;;;;34.41;36.28;98866.81;4995191;28;20253;-67
2022/06/22 09:58:18;;;;;;;10.75;9.88;;;;;;;34.10;38.41;98866.22;4995377;28;20650;-69
2022/06/22 10:00:57;;;;;;;11.25;9.15;;;;;;;34.18;38.21;98862.44;4993255;28;20350;-72
2022/06/22 10:03:56;;;;;;;22.48;10.77;;;;;;;34.23;40.81;98854.66;4997248;28;20199;-70
2022/06/22 10:07:01;;;;;;;14.23;10.63;;;;;;;34.11;42.77;98843.00;4993429;28;20194;-70
2022/06/22 10:09:48;;;;;;;17.27;10.88;;;;;;;34.07;43.89;98834.66;4983350;28;20276;-71
2022/06/22 10:12:33;;;;;;;15.02;10.13;;;;;;;34.24;42.77;98849.91;4994722;28;20360;-71
2022/06/22 10:15:19;;;;;;;12.15;10.30;;;;;;;34.50;42.36;98842.53;4995848;28;20195;-69
2022/06/22 10:18:01;;;;;;;10.75;9.70;;;;;;;34.83;40.90;98839.94;4994465;28;20245;-69
2022/06/22 10:20:49;;;;;;;12.73;10.45;;;;;;;35.17;39.70;98843.59;4992679;28;20725;-69
2022/06/22 10:23:36;;;;;;;10.73;9.77;;;;;;;35.52;37.37;98850.41;5002880;28;20665;-70
2022/06/22 10:26:16;;;;;;;11.50;9.85;;;;;;;35.66;37.07;98849.81;5014062;28;20609;-70
2022/06/22 10:29:11;;;;;;;12.25;9.48;;;;;;;35.85;35.88;98864.28;5012591;28;20190;-71
2022/06/22 10:31:51;;;;;;;14.25;9.43;;;;;;;35.91;34.23;98856.44;4994590;28;20221;-70
2022/06/22 10:34:31;;;;;;;12.95;9.90;;;;;;;35.89;35.27;98833.94;5014057;28;20609;-70
2022/06/22 10:37:31;;;;;;;15.32;9.55;;;;;;;35.98;34.33;98856.53;5014328;28;20292;-69
2022/06/22 10:46:12;;;;;;;12.15;8.60;;;;;;;35.19;35.53;98869.69;4953465;28;20198;-71
2022/06/22 10:49:35;;;;;;;10.93;7.82;;;;;;;35.12;34.94;98874.31;4953385;28;20200;-72
2022/06/22 10:52:27;;;;;;;15.07;8.30;;;;;;;34.94;35.17;98874.03;4924838;29;20227;-71
2022/06/22 10:55:12;;;;;;;14.05;8.50;;;;;;;34.72;35.87;98882.31;5007152;28;20205;-70
2022/06/22 10:57:56;;;;;;;27.67;8.27;;;;;;;34.60;35.51;98875.03;5012651;28;20194;-71
2022/06/22 11:00:35;;;;;;;11.00;8.82;;;;;;;34.52;35.83;98872.53;5012030;28;20221;-71
2022/06/22 11:03:43;;;;;;;10.45;8.35;;;;;;;34.35;36.58;98873.00;5013423;28;20623;-71
2022/06/22 11:06:44;;;;;;;11.82;8.18;;;;;;;34.20;36.65;98871.94;5012997;28;20277;-72
2022/06/22 11:09:26;;;;;;;10.02;7.90;;;;;;;34.07;37.26;98866.94;5012918;28;20186;-72
2022/06/22 11:12:27;;;;;;;11.27;8.57;;;;;;;33.89;37.77;98865.81;5013774;28;20264;-72
2022/06/22 11:15:45;;;;;;;14.63;8.30;;;;;;;33.73;38.46;98865.88;5011857;28;20189;-71
2022/06/22 11:18:36;;;;;;;9.68;8.65;;;;;;;33.65;39.20;98886.19;5013264;28;20194;-70
2022/06/22 11:21:14;;;;;;;13.32;8.73;;;;;;;33.42;40.14;98884.47;5012484;28;20280;-74
2022/06/22 11:24:08;;;;;;;10.57;9.65;;;;;;;33.12;41.58;98864.91;5012586;28;20550;-71
2022/06/22 11:32:51;;;;;;;11.23;9.13;;;;;;;32.06;46.48;98860.63;5011432;28;20209;-72
2022/06/22 11:35:58;;;;;;;12.87;9.37;;;;;;;31.90;46.52;98851.56;5011736;28;20186;-70
2022/06/22 11:39:13;;;;;;;9.37;8.40;;;;;;;32.52;44.66;98879.97;4967163;28;20195;-72
2022/06/22 11:41:56;;;;;;;11.43;9.30;;;;;;;32.95;44.17;98863.34;4967932;28;20207;-71
2022/06/22 11:48:07;;;;;;;11.00;8.18;;;;;;;32.66;43.30;98888.56;5010719;28;20632;-72
2022/06/22 11:50:52;;;;;;;10.83;8.03;;;;;;;32.62;42.14;98890.41;5010865;28;20637;-71
2022/06/22 11:53:35;;;;;;;14.93;7.27;;;;;;;32.43;41.75;98898.59;5010197;28;20193;-70
2022/06/22 11:56:11;;;;;;;13.77;7.40;;;;;;;32.23;42.60;98899.59;5011574;28;20186;-70
2022/06/22 11:59:00;;;;;;;8.07;5.80;;;;;;;31.83;43.25;98893.38;5011273;28;20239;-71
2022/06/22 12:01:47;;;;;;;6.53;5.90;;;;;;;31.65;43.44;98891.22;5011111;28;20657;-70
2022/06/22 12:04:55;;;;;;;8.50;7.17;;;;;;;31.22;46.09;98889.13;5010911;28;20185;-69
2022/06/22 12:07:52;;;;;;;20.70;6.63;;;;;;;31.12;42.22;98878.63;5008691;28;20202;-73
2022/06/22 12:10:40;;;;;;;14.93;7.07;;;;;;;31.46;44.26;98877.31;5009477;28;20190;-72
2022/06/22 12:13:23;;;;;;;12.23;10.97;;;;;;;31.61;51.92;98871.88;5009077;28;20230;-71
2022/06/22 12:16:01;;;;;;;16.20;12.70;;;;;;;31.48;53.75;98881.31;5010216;28;20252;-70
2022/06/22 12:18:44;;;;;;;18.20;11.43;;;;;;;31.45;54.42;98868.31;5009918;28;20189;-70
2022/06/22 12:21:36;;;;;;;43.00;10.63;;;;;;;31.66;50.89;98857.13;5010004;28;20197;-70
2022/06/22 12:24:09;;;;;;;15.43;9.80;;;;;;;31.43;50.71;98865.09;5010421;28;20204;-70
2022/06/22 12:26:48;;;;;;;10.67;9.60;;;;;;;31.55;49.88;98862.31;5011276;28;20618;-71
2022/06/22 12:29:36;;;;;;;15.40;9.47;;;;;;;31.74;49.01;98876.22;5013118;28;20186;-70
2022/06/22 12:32:13;;;;;;;13.30;8.80;;;;;;;31.73;47.45;98884.81;5011484;28;20221;-70
2022/06/22 12:34:46;;;;;;;18.30;9.10;;;;;;;31.79;48.77;98881.47;5009560;28;20190;-70
2022/06/22 12:37:17;;;;;;;25.57;8.30;;;;;;;31.93;44.74;98878.34;5011088;28;20186;-71
2022/06/22 12:39:49;;;;;;;12.63;7.60;;;;;;;31.57;45.46;98865.53;5009093;28;20248;-70
2022/06/22 12:42:48;;;;;;;14.33;8.90;;;;;;;31.29;45.86;98853.69;4990913;28;20195;-71
2022/06/22 12:45:35;;;;;;;9.73;8.73;;;;;;;30.96;46.31;98861.28;4991304;28;20194;-69